sensor_id;sensor_type;location;lat;lon;timestamp;P1;durP1;ratioP1;P2;durP2;ratioP2
22711;SDS011;11523;50.390;8.072;2024-01-15T00:01:20;13.48;;;9.68;;
22711;SDS011;11523;50.390;8.072;2024-01-15T00:03:47;22.42;;;10.27;;
22711;SDS011;11523;50.390;8.072;2024-01-15T00:06:13;11.98;;;6.03;;
22711;SDS011;11523;50.390;8.072;2024-01-15T00:08:39;13.75;;;7.38;;
22711;SDS011;11523;50.390;8.072;2024-01-15T00:11:05;15.88;;;8.43;;
22711;SDS011;11523;50.390;8.072;2024-01-15T00:13:31;19.88;;;8.88;;
22711;SDS011;11523;50.390;8.072;2024-01-15T00:15:57;16.27;;;8.15;;
22711;SDS011;11523;50.390;8.072;2024-01-15T00:18:23;21.85;;;12.05;;
22711;SDS011;11523;50.390;8.072;2024-01-15T00:20:49;10.93;;;5.15;;
22711;SDS011;11523;50.390;8.072;2024-01-15T00:23:14;16.27;;;9.13;;
22711;SDS011;11523;50.390;8.072;2024-01-15T00:25:40;21.38;;;10.32;;
22711;SDS011;11523;50.390;8.072;2024-01-15T00:28:07;15.35;;;5.60;;
22711;SDS011;11523;50.390;8.072;2024-01-15T00:30:32;14.13;;;7.45;;
22711;SDS011;11523;50.390;8.072;2024-01-15T00:32:58;15.50;;;8.05;;
22711;SDS011;11523;50.390;8.072;2024-01-15T00:35:24;15.50;;;8.27;;
22711;SDS011;11523;50.390;8.072;2024-01-15T00:37:50;16.77;;;6.38;;
22711;SDS011;11523;50.390;8.072;2024-01-15T00:40:16;19.63;;;9.65;;
22711;SDS011;11523;50.390;8.072;2024-01-15T00:42:42;13.65;;;7.10;;
22711;SDS011;11523;50.390;8.072;2024-01-15T00:45:08;19.17;;;9.75;;
22711;SDS011;11523;50.390;8.072;2024-01-15T00:47:34;22.23;;;10.50;;
22711;SDS011;11523;50.390;8.072;2024-01-15T00:50:00;13.63;;;7.00;;
22711;SDS011;11523;50.390;8.072;2024-01-15T00:52:26;13.35;;;5.65;;
22711;SDS011;11523;50.390;8.072;2024-01-15T00:54:52;16.73;;;9.38;;
22711;SDS011;11523;50.390;8.072;2024-01-15T00:57:18;22.08;;;13.48;;
22711;SDS011;11523;50.390;8.072;2024-01-15T00:59:44;20.52;;;8.88;;
22711;SDS011;11523;50.390;8.072;2024-01-15T01:02:11;24.20;;;12.30;;
22711;SDS011;11523;50.390;8.072;2024-01-15T01:04:36;15.25;;;6.47;;
22711;SDS011;11523;50.390;8.072;2024-01-15T01:07:03;14.05;;;7.25;;
22711;SDS011;11523;50.390;8.072;2024-01-15T01:09:28;17.83;;;6.53;;
22711;SDS011;11523;50.390;8.072;2024-01-15T01:11:55;17.40;;;10.07;;
22711;SDS011;11523;50.390;8.072;2024-01-15T01:14:21;17.15;;;7.32;;
22711;SDS011;11523;50.390;8.072;2024-01-15T01:16:47;14.80;;;7.30;;
22711;SDS011;11523;50.390;8.072;2024-01-15T01:19:14;18.30;;;7.65;;
22711;SDS011;11523;50.390;8.072;2024-01-15T01:21:40;16.85;;;9.68;;
22711;SDS011;11523;50.390;8.072;2024-01-15T01:24:06;24.33;;;10.60;;
22711;SDS011;11523;50.390;8.072;2024-01-15T01:26:32;19.73;;;11.05;;
22711;SDS011;11523;50.390;8.072;2024-01-15T01:28:58;19.38;;;9.63;;
22711;SDS011;11523;50.390;8.072;2024-01-15T01:31:24;15.85;;;7.75;;
22711;SDS011;11523;50.390;8.072;2024-01-15T01:33:50;24.83;;;11.57;;
22711;SDS011;11523;50.390;8.072;2024-01-15T01:36:16;22.95;;;9.55;;
22711;SDS011;11523;50.390;8.072;2024-01-15T01:38:42;17.80;;;8.80;;
22711;SDS011;11523;50.390;8.072;2024-01-15T01:41:07;18.98;;;10.18;;
22711;SDS011;11523;50.390;8.072;2024-01-15T01:43:33;14.82;;;9.32;;
22711;SDS011;11523;50.390;8.072;2024-01-15T01:46:06;24.38;;;10.90;;
22711;SDS011;11523;50.390;8.072;2024-01-15T01:48:32;18.73;;;7.00;;
22711;SDS011;11523;50.390;8.072;2024-01-15T01:50:59;15.32;;;6.53;;
22711;SDS011;11523;50.390;8.072;2024-01-15T01:53:26;20.73;;;10.35;;
22711;SDS011;11523;50.390;8.072;2024-01-15T01:55:52;14.48;;;7.13;;
22711;SDS011;11523;50.390;8.072;2024-01-15T01:58:19;17.52;;;9.50;;
22711;SDS011;11523;50.390;8.072;2024-01-15T02:00:46;23.83;;;12.23;;
22711;SDS011;11523;50.390;8.072;2024-01-15T02:03:12;23.33;;;9.52;;
22711;SDS011;11523;50.390;8.072;2024-01-15T02:05:39;19.10;;;8.60;;
22711;SDS011;11523;50.390;8.072;2024-01-15T02:08:05;13.95;;;6.57;;
22711;SDS011;11523;50.390;8.072;2024-01-15T02:10:31;20.63;;;9.10;;
22711;SDS011;11523;50.390;8.072;2024-01-15T02:12:57;18.90;;;8.88;;
22711;SDS011;11523;50.390;8.072;2024-01-15T02:15:23;26.33;;;13.65;;
22711;SDS011;11523;50.390;8.072;2024-01-15T02:17:56;19.48;;;8.15;;
22711;SDS011;11523;50.390;8.072;2024-01-15T02:20:22;11.40;;;5.45;;
22711;SDS011;11523;50.390;8.072;2024-01-15T02:22:48;18.80;;;9.35;;
22711;SDS011;11523;50.390;8.072;2024-01-15T02:25:14;13.63;;;7.40;;
22711;SDS011;11523;50.390;8.072;2024-01-15T02:27:40;19.05;;;8.25;;
22711;SDS011;11523;50.390;8.072;2024-01-15T02:30:07;21.45;;;7.53;;
22711;SDS011;11523;50.390;8.072;2024-01-15T02:32:34;22.25;;;11.50;;
22711;SDS011;11523;50.390;8.072;2024-01-15T02:34:59;19.70;;;9.18;;
22711;SDS011;11523;50.390;8.072;2024-01-15T02:49:40;19.20;;;8.73;;
22711;SDS011;11523;50.390;8.072;2024-01-15T02:52:06;19.33;;;9.07;;
22711;SDS011;11523;50.390;8.072;2024-01-15T02:54:32;15.38;;;7.32;;
22711;SDS011;11523;50.390;8.072;2024-01-15T02:56:58;13.93;;;6.25;;
22711;SDS011;11523;50.390;8.072;2024-01-15T02:59:24;14.95;;;6.28;;
22711;SDS011;11523;50.390;8.072;2024-01-15T03:01:50;19.30;;;9.93;;
22711;SDS011;11523;50.390;8.072;2024-01-15T03:04:16;11.90;;;5.50;;
22711;SDS011;11523;50.390;8.072;2024-01-15T03:06:42;10.15;;;5.03;;
22711;SDS011;11523;50.390;8.072;2024-01-15T03:09:08;25.00;;;12.93;;
22711;SDS011;11523;50.390;8.072;2024-01-15T03:11:40;15.65;;;5.72;;
22711;SDS011;11523;50.390;8.072;2024-01-15T03:14:06;16.52;;;8.10;;
22711;SDS011;11523;50.390;8.072;2024-01-15T03:16:32;32.08;;;12.43;;
22711;SDS011;11523;50.390;8.072;2024-01-15T03:18:58;21.80;;;10.90;;
22711;SDS011;11523;50.390;8.072;2024-01-15T03:21:24;14.82;;;7.28;;
22711;SDS011;11523;50.390;8.072;2024-01-15T03:23:50;23.90;;;11.85;;
22711;SDS011;11523;50.390;8.072;2024-01-15T03:26:16;22.95;;;11.82;;
22711;SDS011;11523;50.390;8.072;2024-01-15T03:28:42;22.48;;;11.45;;
22711;SDS011;11523;50.390;8.072;2024-01-15T03:31:08;22.58;;;10.18;;
22711;SDS011;11523;50.390;8.072;2024-01-15T03:33:33;22.35;;;10.98;;
22711;SDS011;11523;50.390;8.072;2024-01-15T03:35:59;15.93;;;7.18;;
22711;SDS011;11523;50.390;8.072;2024-01-15T03:38:27;25.23;;;11.43;;
22711;SDS011;11523;50.390;8.072;2024-01-15T03:40:53;26.60;;;12.65;;
22711;SDS011;11523;50.390;8.072;2024-01-15T03:43:19;25.73;;;10.55;;
22711;SDS011;11523;50.390;8.072;2024-01-15T03:45:45;24.17;;;11.63;;
22711;SDS011;11523;50.390;8.072;2024-01-15T03:48:11;15.45;;;7.28;;
22711;SDS011;11523;50.390;8.072;2024-01-15T03:50:37;24.05;;;11.02;;
22711;SDS011;11523;50.390;8.072;2024-01-15T03:53:09;15.13;;;6.85;;
22711;SDS011;11523;50.390;8.072;2024-01-15T03:55:35;21.90;;;10.77;;
22711;SDS011;11523;50.390;8.072;2024-01-15T03:58:01;16.45;;;7.35;;
22711;SDS011;11523;50.390;8.072;2024-01-15T04:00:27;28.33;;;13.43;;
22711;SDS011;11523;50.390;8.072;2024-01-15T04:02:53;15.05;;;6.55;;
22711;SDS011;11523;50.390;8.072;2024-01-15T04:05:19;25.27;;;12.20;;
22711;SDS011;11523;50.390;8.072;2024-01-15T04:07:45;21.95;;;9.27;;
22711;SDS011;11523;50.390;8.072;2024-01-15T04:10:11;16.05;;;6.63;;
22711;SDS011;11523;50.390;8.072;2024-01-15T04:12:37;23.52;;;9.85;;
22711;SDS011;11523;50.390;8.072;2024-01-15T04:15:03;13.68;;;6.70;;
22711;SDS011;11523;50.390;8.072;2024-01-15T04:17:29;19.15;;;8.93;;
22711;SDS011;11523;50.390;8.072;2024-01-15T04:19:55;24.88;;;14.55;;
22711;SDS011;11523;50.390;8.072;2024-01-15T04:22:21;21.70;;;11.18;;
22711;SDS011;11523;50.390;8.072;2024-01-15T04:24:47;21.58;;;10.38;;
22711;SDS011;11523;50.390;8.072;2024-01-15T04:27:13;24.30;;;13.00;;
22711;SDS011;11523;50.390;8.072;2024-01-15T04:29:39;23.63;;;10.93;;
22711;SDS011;11523;50.390;8.072;2024-01-15T04:32:05;26.75;;;11.82;;
22711;SDS011;11523;50.390;8.072;2024-01-15T04:34:31;22.10;;;11.60;;
22711;SDS011;11523;50.390;8.072;2024-01-15T04:36:57;23.63;;;11.20;;
22711;SDS011;11523;50.390;8.072;2024-01-15T04:39:29;20.17;;;10.75;;
22711;SDS011;11523;50.390;8.072;2024-01-15T04:41:55;22.35;;;9.95;;
22711;SDS011;11523;50.390;8.072;2024-01-15T04:44:22;25.38;;;12.68;;
22711;SDS011;11523;50.390;8.072;2024-01-15T04:46:47;12.68;;;5.50;;
22711;SDS011;11523;50.390;8.072;2024-01-15T04:49:13;22.75;;;11.52;;
22711;SDS011;11523;50.390;8.072;2024-01-15T04:51:39;26.95;;;12.18;;
22711;SDS011;11523;50.390;8.072;2024-01-15T04:54:05;16.92;;;7.30;;
22711;SDS011;11523;50.390;8.072;2024-01-15T04:56:31;23.40;;;9.48;;
22711;SDS011;11523;50.390;8.072;2024-01-15T04:58:57;26.73;;;11.48;;
22711;SDS011;11523;50.390;8.072;2024-01-15T05:01:23;23.00;;;11.25;;
22711;SDS011;11523;50.390;8.072;2024-01-15T05:03:49;24.67;;;12.00;;
22711;SDS011;11523;50.390;8.072;2024-01-15T05:06:15;22.75;;;13.27;;
22711;SDS011;11523;50.390;8.072;2024-01-15T05:08:41;25.73;;;12.50;;
22711;SDS011;11523;50.390;8.072;2024-01-15T05:11:07;17.00;;;7.38;;
22711;SDS011;11523;50.390;8.072;2024-01-15T05:13:33;26.85;;;13.73;;
22711;SDS011;11523;50.390;8.072;2024-01-15T05:15:59;23.85;;;12.63;;
22711;SDS011;11523;50.390;8.072;2024-01-15T05:18:31;23.50;;;11.00;;
22711;SDS011;11523;50.390;8.072;2024-01-15T05:20:57;24.75;;;9.85;;
22711;SDS011;11523;50.390;8.072;2024-01-15T05:23:23;18.52;;;9.02;;
22711;SDS011;11523;50.390;8.072;2024-01-15T05:25:49;24.08;;;12.02;;
22711;SDS011;11523;50.390;8.072;2024-01-15T05:28:15;23.95;;;11.50;;
22711;SDS011;11523;50.390;8.072;2024-01-15T05:30:41;26.65;;;12.43;;
22711;SDS011;11523;50.390;8.072;2024-01-15T05:33:07;20.63;;;10.20;;
22711;SDS011;11523;50.390;8.072;2024-01-15T05:35:33;27.30;;;12.30;;
22711;SDS011;11523;50.390;8.072;2024-01-15T05:37:59;16.30;;;7.95;;
22711;SDS011;11523;50.390;8.072;2024-01-15T05:40:25;24.33;;;12.55;;
22711;SDS011;11523;50.390;8.072;2024-01-15T05:42:51;19.63;;;9.57;;
22711;SDS011;11523;50.390;8.072;2024-01-15T05:45:17;27.38;;;11.85;;
22711;SDS011;11523;50.390;8.072;2024-01-15T05:47:43;25.67;;;13.65;;
22711;SDS011;11523;50.390;8.072;2024-01-15T05:50:09;24.05;;;11.38;;
22711;SDS011;11523;50.390;8.072;2024-01-15T05:52:35;24.67;;;11.50;;
22711;SDS011;11523;50.390;8.072;2024-01-15T05:55:01;22.65;;;10.70;;
22711;SDS011;11523;50.390;8.072;2024-01-15T05:57:27;29.38;;;14.68;;
22711;SDS011;11523;50.390;8.072;2024-01-15T05:59:53;25.95;;;12.00;;
22711;SDS011;11523;50.390;8.072;2024-01-15T06:02:19;22.58;;;10.48;;
22711;SDS011;11523;50.390;8.072;2024-01-15T06:04:45;23.10;;;10.38;;
22711;SDS011;11523;50.390;8.072;2024-01-15T06:07:11;25.85;;;12.65;;
22711;SDS011;11523;50.390;8.072;2024-01-15T06:09:37;29.75;;;14.18;;
22711;SDS011;11523;50.390;8.072;2024-01-15T06:12:03;23.67;;;11.48;;
22711;SDS011;11523;50.390;8.072;2024-01-15T06:14:29;28.23;;;14.48;;
22711;SDS011;11523;50.390;8.072;2024-01-15T06:16:55;28.65;;;16.13;;
22711;SDS011;11523;50.390;8.072;2024-01-15T06:19:21;21.70;;;10.50;;
22711;SDS011;11523;50.390;8.072;2024-01-15T06:21:47;25.90;;;12.52;;
22711;SDS011;11523;50.390;8.072;2024-01-15T06:24:13;33.35;;;14.20;;
22711;SDS011;11523;50.390;8.072;2024-01-15T06:26:40;33.03;;;14.85;;
22711;SDS011;11523;50.390;8.072;2024-01-15T06:29:06;28.25;;;13.13;;
22711;SDS011;11523;50.390;8.072;2024-01-15T06:31:32;23.60;;;11.70;;
22711;SDS011;11523;50.390;8.072;2024-01-15T06:33:58;24.63;;;11.43;;
22711;SDS011;11523;50.390;8.072;2024-01-15T06:36:24;32.08;;;16.15;;
22711;SDS011;11523;50.390;8.072;2024-01-15T06:38:50;30.85;;;15.85;;
22711;SDS011;11523;50.390;8.072;2024-01-15T06:41:16;28.15;;;15.40;;
22711;SDS011;11523;50.390;8.072;2024-01-15T06:43:42;26.08;;;12.38;;
22711;SDS011;11523;50.390;8.072;2024-01-15T06:46:08;31.90;;;15.48;;
22711;SDS011;11523;50.390;8.072;2024-01-15T06:48:34;33.10;;;14.95;;
22711;SDS011;11523;50.390;8.072;2024-01-15T06:51:00;29.08;;;13.38;;
22711;SDS011;11523;50.390;8.072;2024-01-15T06:53:26;34.10;;;14.73;;
22711;SDS011;11523;50.390;8.072;2024-01-15T06:55:52;23.90;;;12.15;;
22711;SDS011;11523;50.390;8.072;2024-01-15T06:58:18;28.77;;;13.93;;
22711;SDS011;11523;50.390;8.072;2024-01-15T07:00:43;30.63;;;13.25;;
22711;SDS011;11523;50.390;8.072;2024-01-15T07:03:10;27.00;;;12.68;;
22711;SDS011;11523;50.390;8.072;2024-01-15T07:05:36;26.23;;;11.85;;
22711;SDS011;11523;50.390;8.072;2024-01-15T07:08:02;25.75;;;11.05;;
22711;SDS011;11523;50.390;8.072;2024-01-15T07:10:28;30.00;;;15.70;;
22711;SDS011;11523;50.390;8.072;2024-01-15T07:12:54;32.20;;;17.23;;
22711;SDS011;11523;50.390;8.072;2024-01-15T07:15:20;23.90;;;10.30;;
22711;SDS011;11523;50.390;8.072;2024-01-15T07:17:46;32.78;;;14.20;;
22711;SDS011;11523;50.390;8.072;2024-01-15T07:20:12;24.38;;;13.30;;
22711;SDS011;11523;50.390;8.072;2024-01-15T07:22:38;24.88;;;12.93;;
22711;SDS011;11523;50.390;8.072;2024-01-15T07:25:04;31.10;;;15.18;;
22711;SDS011;11523;50.390;8.072;2024-01-15T07:27:31;30.25;;;15.30;;
22711;SDS011;11523;50.390;8.072;2024-01-15T07:29:57;31.33;;;13.50;;
22711;SDS011;11523;50.390;8.072;2024-01-15T07:32:23;28.17;;;12.75;;
22711;SDS011;11523;50.390;8.072;2024-01-15T07:34:49;32.13;;;18.02;;
22711;SDS011;11523;50.390;8.072;2024-01-15T07:37:15;32.50;;;15.35;;
22711;SDS011;11523;50.390;8.072;2024-01-15T07:39:41;33.03;;;15.70;;
22711;SDS011;11523;50.390;8.072;2024-01-15T07:42:07;34.00;;;15.50;;
22711;SDS011;11523;50.390;8.072;2024-01-15T07:44:39;29.75;;;13.15;;
22711;SDS011;11523;50.390;8.072;2024-01-15T07:47:05;32.30;;;16.15;;
22711;SDS011;11523;50.390;8.072;2024-01-15T07:49:31;11.85;;;5.70;;
22711;SDS011;11523;50.390;8.072;2024-01-15T07:51:57;24.35;;;10.35;;
22711;SDS011;11523;50.390;8.072;2024-01-15T07:54:23;31.80;;;15.25;;
22711;SDS011;11523;50.390;8.072;2024-01-15T07:56:53;33.17;;;16.40;;
22711;SDS011;11523;50.390;8.072;2024-01-15T07:59:19;31.27;;;13.57;;
22711;SDS011;11523;50.390;8.072;2024-01-15T08:01:45;26.85;;;14.02;;
22711;SDS011;11523;50.390;8.072;2024-01-15T08:04:12;29.52;;;14.90;;
22711;SDS011;11523;50.390;8.072;2024-01-15T08:06:38;26.95;;;12.25;;
22711;SDS011;11523;50.390;8.072;2024-01-15T08:09:04;22.77;;;11.48;;
22711;SDS011;11523;50.390;8.072;2024-01-15T08:11:30;23.55;;;11.38;;
22711;SDS011;11523;50.390;8.072;2024-01-15T08:13:56;31.95;;;13.75;;
22711;SDS011;11523;50.390;8.072;2024-01-15T08:16:23;31.98;;;16.25;;
22711;SDS011;11523;50.390;8.072;2024-01-15T08:18:50;27.27;;;13.05;;
22711;SDS011;11523;50.390;8.072;2024-01-15T08:21:16;32.58;;;13.85;;
22711;SDS011;11523;50.390;8.072;2024-01-15T08:23:42;30.63;;;15.30;;
22711;SDS011;11523;50.390;8.072;2024-01-15T08:26:07;30.25;;;13.70;;
22711;SDS011;11523;50.390;8.072;2024-01-15T08:28:34;28.52;;;13.57;;
22711;SDS011;11523;50.390;8.072;2024-01-15T08:30:59;30.83;;;13.52;;
22711;SDS011;11523;50.390;8.072;2024-01-15T08:33:25;29.02;;;14.15;;
22711;SDS011;11523;50.390;8.072;2024-01-15T08:35:51;22.17;;;11.98;;
22711;SDS011;11523;50.390;8.072;2024-01-15T08:38:18;24.42;;;12.93;;
22711;SDS011;11523;50.390;8.072;2024-01-15T08:40:44;17.02;;;7.22;;
22711;SDS011;11523;50.390;8.072;2024-01-15T08:43:10;28.00;;;14.98;;
22711;SDS011;11523;50.390;8.072;2024-01-15T08:45:36;31.98;;;20.45;;
22711;SDS011;11523;50.390;8.072;2024-01-15T08:48:02;23.67;;;11.63;;
22711;SDS011;11523;50.390;8.072;2024-01-15T08:50:28;30.20;;;15.18;;
22711;SDS011;11523;50.390;8.072;2024-01-15T08:52:54;27.73;;;14.38;;
22711;SDS011;11523;50.390;8.072;2024-01-15T08:55:21;27.60;;;14.57;;
22711;SDS011;11523;50.390;8.072;2024-01-15T08:57:50;30.48;;;15.25;;
22711;SDS011;11523;50.390;8.072;2024-01-15T09:00:16;25.35;;;13.65;;
22711;SDS011;11523;50.390;8.072;2024-01-15T09:02:42;29.42;;;14.70;;
22711;SDS011;11523;50.390;8.072;2024-01-15T09:05:08;21.23;;;10.45;;
22711;SDS011;11523;50.390;8.072;2024-01-15T09:07:34;30.02;;;14.60;;
22711;SDS011;11523;50.390;8.072;2024-01-15T09:10:00;29.80;;;15.27;;
22711;SDS011;11523;50.390;8.072;2024-01-15T09:12:27;30.50;;;13.63;;
22711;SDS011;11523;50.390;8.072;2024-01-15T09:14:54;21.05;;;10.45;;
22711;SDS011;11523;50.390;8.072;2024-01-15T09:17:20;24.00;;;12.73;;
22711;SDS011;11523;50.390;8.072;2024-01-15T09:19:48;22.50;;;12.27;;
22711;SDS011;11523;50.390;8.072;2024-01-15T09:22:20;30.23;;;15.38;;
22711;SDS011;11523;50.390;8.072;2024-01-15T09:24:46;26.40;;;14.10;;
22711;SDS011;11523;50.390;8.072;2024-01-15T09:27:12;26.90;;;15.75;;
22711;SDS011;11523;50.390;8.072;2024-01-15T09:29:38;23.30;;;13.52;;
22711;SDS011;11523;50.390;8.072;2024-01-15T09:32:09;22.65;;;11.13;;
22711;SDS011;11523;50.390;8.072;2024-01-15T09:34:34;26.55;;;14.32;;
22711;SDS011;11523;50.390;8.072;2024-01-15T09:37:00;23.00;;;13.75;;
22711;SDS011;11523;50.390;8.072;2024-01-15T09:39:27;24.38;;;14.65;;
22711;SDS011;11523;50.390;8.072;2024-01-15T09:41:53;22.40;;;12.55;;
22711;SDS011;11523;50.390;8.072;2024-01-15T09:44:20;23.08;;;12.80;;
22711;SDS011;11523;50.390;8.072;2024-01-15T09:46:47;24.17;;;12.88;;
22711;SDS011;11523;50.390;8.072;2024-01-15T09:49:15;24.10;;;11.85;;
22711;SDS011;11523;50.390;8.072;2024-01-15T09:51:41;24.73;;;11.68;;
22711;SDS011;11523;50.390;8.072;2024-01-15T09:54:08;21.05;;;12.70;;
22711;SDS011;11523;50.390;8.072;2024-01-15T09:56:34;21.75;;;13.63;;
22711;SDS011;11523;50.390;8.072;2024-01-15T09:59:00;24.13;;;13.60;;
22711;SDS011;11523;50.390;8.072;2024-01-15T10:01:27;12.20;;;4.53;;
22711;SDS011;11523;50.390;8.072;2024-01-15T10:03:54;16.77;;;9.95;;
22711;SDS011;11523;50.390;8.072;2024-01-15T10:06:21;21.90;;;12.15;;
22711;SDS011;11523;50.390;8.072;2024-01-15T10:08:50;22.02;;;11.80;;
22711;SDS011;11523;50.390;8.072;2024-01-15T10:11:17;20.40;;;10.30;;
22711;SDS011;11523;50.390;8.072;2024-01-15T10:13:43;15.93;;;7.53;;
22711;SDS011;11523;50.390;8.072;2024-01-15T10:16:09;20.58;;;11.60;;
22711;SDS011;11523;50.390;8.072;2024-01-15T10:18:36;17.85;;;10.38;;
22711;SDS011;11523;50.390;8.072;2024-01-15T10:21:04;18.85;;;12.27;;
22711;SDS011;11523;50.390;8.072;2024-01-15T10:23:31;15.10;;;9.10;;
22711;SDS011;11523;50.390;8.072;2024-01-15T10:25:58;11.85;;;6.40;;
22711;SDS011;11523;50.390;8.072;2024-01-15T10:28:26;20.30;;;10.50;;
22711;SDS011;11523;50.390;8.072;2024-01-15T10:30:52;16.50;;;10.45;;
22711;SDS011;11523;50.390;8.072;2024-01-15T10:33:23;13.40;;;8.00;;
22711;SDS011;11523;50.390;8.072;2024-01-15T10:35:55;18.55;;;9.90;;
22711;SDS011;11523;50.390;8.072;2024-01-15T10:38:21;19.70;;;10.60;;
22711;SDS011;11523;50.390;8.072;2024-01-15T10:40:50;15.68;;;8.93;;
22711;SDS011;11523;50.390;8.072;2024-01-15T10:43:16;15.55;;;10.85;;
22711;SDS011;11523;50.390;8.072;2024-01-15T10:45:45;16.67;;;9.85;;
22711;SDS011;11523;50.390;8.072;2024-01-15T10:48:11;12.00;;;6.03;;
22711;SDS011;11523;50.390;8.072;2024-01-15T10:50:37;15.75;;;9.95;;
22711;SDS011;11523;50.390;8.072;2024-01-15T10:53:04;15.80;;;9.18;;
22711;SDS011;11523;50.390;8.072;2024-01-15T10:55:30;12.98;;;7.50;;
22711;SDS011;11523;50.390;8.072;2024-01-15T10:58:02;18.00;;;11.55;;
22711;SDS011;11523;50.390;8.072;2024-01-15T11:00:28;17.30;;;11.50;;
22711;SDS011;11523;50.390;8.072;2024-01-15T11:02:55;18.40;;;10.77;;
22711;SDS011;11523;50.390;8.072;2024-01-15T11:05:21;7.45;;;4.35;;
22711;SDS011;11523;50.390;8.072;2024-01-15T11:07:48;15.00;;;6.63;;
22711;SDS011;11523;50.390;8.072;2024-01-15T11:10:59;15.40;;;9.57;;
22711;SDS011;11523;50.390;8.072;2024-01-15T11:13:00;15.77;;;9.70;;
22711;SDS011;11523;50.390;8.072;2024-01-15T11:15:27;17.27;;;10.32;;
22711;SDS011;11523;50.390;8.072;2024-01-15T11:17:57;18.90;;;9.68;;
22711;SDS011;11523;50.390;8.072;2024-01-15T11:20:28;19.13;;;10.70;;
22711;SDS011;11523;50.390;8.072;2024-01-15T11:22:55;18.27;;;10.68;;
22711;SDS011;11523;50.390;8.072;2024-01-15T11:25:24;16.92;;;8.07;;
22711;SDS011;11523;50.390;8.072;2024-01-15T11:27:51;16.98;;;12.18;;
22711;SDS011;11523;50.390;8.072;2024-01-15T11:30:17;17.77;;;12.50;;
22711;SDS011;11523;50.390;8.072;2024-01-15T11:32:45;14.25;;;10.93;;
22711;SDS011;11523;50.390;8.072;2024-01-15T11:35:12;15.95;;;11.00;;
22711;SDS011;11523;50.390;8.072;2024-01-15T11:40:21;16.42;;;8.07;;
22711;SDS011;11523;50.390;8.072;2024-01-15T11:42:48;18.77;;;10.57;;
22711;SDS011;11523;50.390;8.072;2024-01-15T11:45:23;15.82;;;8.93;;
22711;SDS011;11523;50.390;8.072;2024-01-15T11:50:35;19.02;;;10.40;;
22711;SDS011;11523;50.390;8.072;2024-01-15T11:53:05;13.02;;;8.18;;
22711;SDS011;11523;50.390;8.072;2024-01-15T11:55:34;15.63;;;9.60;;
22711;SDS011;11523;50.390;8.072;2024-01-15T11:58:01;17.52;;;10.30;;
22711;SDS011;11523;50.390;8.072;2024-01-15T12:00:28;14.27;;;7.80;;
22711;SDS011;11523;50.390;8.072;2024-01-15T12:02:54;15.95;;;9.70;;
22711;SDS011;11523;50.390;8.072;2024-01-15T12:05:21;14.32;;;9.13;;
22711;SDS011;11523;50.390;8.072;2024-01-15T12:07:47;13.63;;;8.52;;
22711;SDS011;11523;50.390;8.072;2024-01-15T12:10:17;14.52;;;9.75;;
22711;SDS011;11523;50.390;8.072;2024-01-15T12:15:28;13.25;;;8.27;;
22711;SDS011;11523;50.390;8.072;2024-01-15T12:17:55;12.50;;;7.28;;
22711;SDS011;11523;50.390;8.072;2024-01-15T12:20:24;13.73;;;7.78;;
22711;SDS011;11523;50.390;8.072;2024-01-15T12:22:50;17.83;;;10.15;;
22711;SDS011;11523;50.390;8.072;2024-01-15T12:25:16;15.18;;;9.88;;
22711;SDS011;11523;50.390;8.072;2024-01-15T12:27:42;16.48;;;10.40;;
22711;SDS011;11523;50.390;8.072;2024-01-15T12:30:12;14.63;;;10.90;;
22711;SDS011;11523;50.390;8.072;2024-01-15T12:32:40;11.52;;;6.75;;
22711;SDS011;11523;50.390;8.072;2024-01-15T12:35:07;13.13;;;8.15;;
22711;SDS011;11523;50.390;8.072;2024-01-15T12:37:35;14.13;;;8.48;;
22711;SDS011;11523;50.390;8.072;2024-01-15T12:40:02;10.10;;;6.05;;
22711;SDS011;11523;50.390;8.072;2024-01-15T12:42:29;10.77;;;6.75;;
22711;SDS011;11523;50.390;8.072;2024-01-15T12:44:58;11.90;;;7.18;;
22711;SDS011;11523;50.390;8.072;2024-01-15T12:47:25;11.23;;;6.95;;
22711;SDS011;11523;50.390;8.072;2024-01-15T12:49:51;9.73;;;5.15;;
22711;SDS011;11523;50.390;8.072;2024-01-15T12:52:20;10.10;;;6.28;;
22711;SDS011;11523;50.390;8.072;2024-01-15T12:54:47;10.07;;;6.72;;
22711;SDS011;11523;50.390;8.072;2024-01-15T12:57:13;7.97;;;5.03;;
22711;SDS011;11523;50.390;8.072;2024-01-15T12:59:39;7.85;;;4.90;;
22711;SDS011;11523;50.390;8.072;2024-01-15T13:02:05;7.95;;;5.90;;
22711;SDS011;11523;50.390;8.072;2024-01-15T13:04:32;8.45;;;5.93;;
22711;SDS011;11523;50.390;8.072;2024-01-15T13:06:57;6.38;;;4.32;;
22711;SDS011;11523;50.390;8.072;2024-01-15T13:09:23;8.85;;;5.32;;
22711;SDS011;11523;50.390;8.072;2024-01-15T13:11:49;9.52;;;5.60;;
22711;SDS011;11523;50.390;8.072;2024-01-15T13:14:17;9.02;;;5.45;;
22711;SDS011;11523;50.390;8.072;2024-01-15T13:16:43;7.30;;;5.47;;
22711;SDS011;11523;50.390;8.072;2024-01-15T13:19:09;8.18;;;5.50;;
22711;SDS011;11523;50.390;8.072;2024-01-15T13:21:41;8.30;;;5.22;;
22711;SDS011;11523;50.390;8.072;2024-01-15T13:24:07;6.68;;;4.35;;
22711;SDS011;11523;50.390;8.072;2024-01-15T13:26:34;8.27;;;5.40;;
22711;SDS011;11523;50.390;8.072;2024-01-15T13:29:01;7.60;;;3.97;;
22711;SDS011;11523;50.390;8.072;2024-01-15T13:31:28;7.18;;;5.25;;
22711;SDS011;11523;50.390;8.072;2024-01-15T13:33:54;7.82;;;4.50;;
22711;SDS011;11523;50.390;8.072;2024-01-15T13:36:21;4.65;;;3.28;;
22711;SDS011;11523;50.390;8.072;2024-01-15T13:38:48;6.05;;;3.83;;
22711;SDS011;11523;50.390;8.072;2024-01-15T13:41:14;4.88;;;2.90;;
22711;SDS011;11523;50.390;8.072;2024-01-15T13:43:40;5.43;;;3.97;;
22711;SDS011;11523;50.390;8.072;2024-01-15T13:46:06;6.35;;;3.83;;
22711;SDS011;11523;50.390;8.072;2024-01-15T13:48:32;7.88;;;4.30;;
22711;SDS011;11523;50.390;8.072;2024-01-15T13:50:58;5.03;;;2.70;;
22711;SDS011;11523;50.390;8.072;2024-01-15T13:53:24;7.68;;;4.13;;
22711;SDS011;11523;50.390;8.072;2024-01-15T13:55:51;7.68;;;3.95;;
22711;SDS011;11523;50.390;8.072;2024-01-15T13:58:17;5.75;;;2.58;;
22711;SDS011;11523;50.390;8.072;2024-01-15T14:00:43;6.43;;;4.07;;
22711;SDS011;11523;50.390;8.072;2024-01-15T14:03:15;5.45;;;4.00;;
22711;SDS011;11523;50.390;8.072;2024-01-15T14:05:41;6.88;;;3.90;;
22711;SDS011;11523;50.390;8.072;2024-01-15T14:08:08;3.17;;;2.42;;
22711;SDS011;11523;50.390;8.072;2024-01-15T14:10:34;8.95;;;4.65;;
22711;SDS011;11523;50.390;8.072;2024-01-15T14:13:00;10.30;;;4.05;;
22711;SDS011;11523;50.390;8.072;2024-01-15T14:15:26;4.68;;;2.65;;
22711;SDS011;11523;50.390;8.072;2024-01-15T14:17:52;10.10;;;4.35;;
22711;SDS011;11523;50.390;8.072;2024-01-15T14:20:18;5.20;;;2.42;;
22711;SDS011;11523;50.390;8.072;2024-01-15T14:22:44;9.70;;;3.70;;
22711;SDS011;11523;50.390;8.072;2024-01-15T14:25:10;5.93;;;2.90;;
22711;SDS011;11523;50.390;8.072;2024-01-15T14:27:36;4.40;;;2.42;;
22711;SDS011;11523;50.390;8.072;2024-01-15T14:30:02;6.60;;;2.80;;
22711;SDS011;11523;50.390;8.072;2024-01-15T14:32:28;8.88;;;3.47;;
22711;SDS011;11523;50.390;8.072;2024-01-15T14:34:54;8.82;;;3.22;;
22711;SDS011;11523;50.390;8.072;2024-01-15T14:37:21;3.63;;;2.25;;
22711;SDS011;11523;50.390;8.072;2024-01-15T14:39:47;4.95;;;2.38;;
22711;SDS011;11523;50.390;8.072;2024-01-15T14:42:13;8.35;;;3.00;;
22711;SDS011;11523;50.390;8.072;2024-01-15T14:44:39;3.95;;;2.00;;